Time;durP1;ratioP1;P1;durP2;ratioP2;P2;SDS_P1;SDS_P2;PMS_P1;PMS_P2;Temp;Humidity;BMP_temperature;BMP_pressure;BME280_temperature;BME280_humidity;BME280_pressure;Samples;Min_cycle;Max_cycle;Signal;HPM_P1;HPM_P2
2022/08/05 00:04:29;;;;;;;;;;;;;;;22.83;73.28;95372.28;10545489;28;1976;-70
2022/08/05 00:09:35;;;;;;;;;;;;;;;22.72;74.06;95368.56;10523462;28;1940;-71
2022/08/05 00:14:39;;;;;;;;;;;;;;;22.73;74.48;95361.91;10529398;28;2146;-71
2022/08/05 00:19:43;;;;;;;;;;;;;;;22.69;75.05;95363.78;10526307;28;1895;-70
2022/08/05 00:25:05;;;;;;;;;;;;;;;22.57;75.85;95356.50;10528337;28;1982;-70
2022/08/05 00:30:14;;;;;;;;;;;;;;;22.48;76.67;95351.25;10559740;27;1931;-71
2022/08/05 00:35:18;;;;;;;;;;;;;;;22.40;77.34;95352.25;10527499;28;1917;-71
2022/08/05 00:40:22;;;;;;;;;;;;;;;22.39;78.06;95356.94;10543577;28;1907;-73
2022/08/05 00:45:31;;;;;;;;;;;;;;;22.30;78.27;95350.88;10528589;28;1989;-70
2022/08/05 00:50:45;;;;;;;;;;;;;;;22.22;78.58;95345.59;10526052;28;2011;-70
2022/08/05 00:55:48;;;;;;;;;;;;;;;22.13;79.07;95346.56;10523207;28;1991;-71
2022/08/05 01:00:52;;;;;;;;;;;;;;;22.18;79.31;95350.19;10527956;28;2037;-72
2022/08/05 01:05:56;;;;;;;;;;;;;;;22.07;79.97;95350.72;10527357;28;2044;-71
2022/08/05 01:11:01;;;;;;;;;;;;;;;22.00;80.62;95341.56;10541884;28;1925;-71
2022/08/05 01:16:06;;;;;;;;;;;;;;;21.99;80.92;95348.19;10526002;28;1953;-71
2022/08/05 01:21:11;;;;;;;;;;;;;;;22.00;80.93;95342.34;10523447;28;1968;-71
2022/08/05 01:26:27;;;;;;;;;;;;;;;22.00;81.46;95345.09;10541685;28;1899;-72
2022/08/05 01:31:46;;;;;;;;;;;;;;;22.07;81.19;95345.25;10522094;28;2041;-71
2022/08/05 01:37:10;;;;;;;;;;;;;;;22.04;81.36;95343.22;10528331;28;1953;-71
2022/08/05 01:42:29;;;;;;;;;;;;;;;22.01;81.31;95343.97;10523562;28;2079;-72
2022/08/05 01:47:33;;;;;;;;;;;;;;;22.02;81.40;95331.06;10525474;28;1949;-72
2022/08/05 01:52:42;;;;;;;;;;;;;;;21.95;81.49;95339.09;10524612;28;1981;-71
2022/08/05 01:57:45;;;;;;;;;;;;;;;22.00;81.43;95341.56;10524518;28;1947;-71
2022/08/05 02:03:09;;;;;;;;;;;;;;;21.97;81.81;95343.06;10524779;28;1957;-72
2022/08/05 02:08:27;;;;;;;;;;;;;;;21.83;82.13;95346.28;10522919;28;1925;-74
2022/08/05 02:13:33;;;;;;;;;;;;;;;21.88;81.88;95345.19;10523524;28;1897;-70
2022/08/05 02:18:56;;;;;;;;;;;;;;;21.80;82.27;95346.19;10522149;28;2016;-71
2022/08/05 02:23:59;;;;;;;;;;;;;;;21.76;82.83;95345.34;10521631;28;1989;-71
2022/08/05 02:29:04;;;;;;;;;;;;;;;21.78;82.91;95348.50;10523588;28;1909;-71
2022/08/05 02:34:23;;;;;;;;;;;;;;;21.68;83.23;95338.09;10524919;28;1905;-71
2022/08/05 02:39:33;;;;;;;;;;;;;;;21.60;83.71;95337.13;10522990;28;2036;-72
2022/08/05 02:44:44;;;;;;;;;;;;;;;21.49;84.65;95345.06;10521287;28;2006;-71
2022/08/05 02:49:48;;;;;;;;;;;;;;;21.44;84.68;95344.53;10521186;28;1937;-71
2022/08/05 02:54:52;;;;;;;;;;;;;;;21.35;85.08;95344.72;10519205;28;2394;-71
2022/08/05 02:59:57;;;;;;;;;;;;;;;21.29;85.39;95352.41;10518642;28;2022;-71
2022/08/05 03:05:01;;;;;;;;;;;;;;;21.25;86.36;95334.31;10519912;28;2044;-71
2022/08/05 03:10:05;;;;;;;;;;;;;;;21.27;86.59;95338.25;10537079;28;1885;-71
2022/08/05 03:15:10;;;;;;;;;;;;;;;21.23;86.47;95342.03;10524468;28;1953;-71
2022/08/05 03:20:14;;;;;;;;;;;;;;;21.15;86.89;95345.75;10524387;28;1914;-71
2022/08/05 03:25:18;;;;;;;;;;;;;;;21.12;87.04;95339.06;10522983;28;1985;-71
2022/08/05 03:30:41;;;;;;;;;;;;;;;21.09;87.29;95338.97;10537315;28;1971;-71
2022/08/05 03:35:45;;;;;;;;;;;;;;;21.05;86.99;95333.38;10519636;28;1938;-72
2022/08/05 03:40:48;;;;;;;;;;;;;;;20.96;87.53;95336.28;10519419;28;1964;-71
2022/08/05 03:45:53;;;;;;;;;;;;;;;20.96;87.79;95325.38;10523342;28;1945;-71
2022/08/05 03:51:01;;;;;;;;;;;;;;;20.96;88.18;95324.56;10521487;28;1969;-70
2022/08/05 03:56:25;;;;;;;;;;;;;;;20.95;88.24;95328.47;10521391;28;2017;-71
2022/08/05 04:01:35;;;;;;;;;;;;;;;20.97;88.44;95329.69;10522283;28;1926;-72
2022/08/05 04:06:38;;;;;;;;;;;;;;;21.02;88.10;95332.16;10526897;28;1953;-69
2022/08/05 04:11:50;;;;;;;;;;;;;;;21.13;87.63;95332.44;10525958;28;2267;-69
2022/08/05 04:16:55;;;;;;;;;;;;;;;21.28;86.93;95334.41;10530573;28;1949;-71
2022/08/05 04:21:59;;;;;;;;;;;;;;;21.45;85.83;95330.53;10525718;28;1969;-71
2022/08/05 04:27:14;;;;;;;;;;;;;;;21.64;84.75;95346.22;10527961;28;1886;-70
2022/08/05 04:32:17;;;;;;;;;;;;;;;21.96;82.89;95382.53;10524179;28;1984;-70
2022/08/05 04:37:33;;;;;;;;;;;;;;;22.31;80.92;95403.69;10523852;28;2039;-71
2022/08/05 04:42:57;;;;;;;;;;;;;;;22.47;80.09;95393.47;10523145;28;2027;-70
2022/08/05 04:48:02;;;;;;;;;;;;;;;22.91;75.18;95398.72;10532182;28;1962;-69
2022/08/05 04:53:06;;;;;;;;;;;;;;;23.36;72.18;95397.19;10546430;28;1969;-72
2022/08/05 04:58:10;;;;;;;;;;;;;;;23.64;69.48;95394.19;10528025;28;1908;-71
2022/08/05 05:03:14;;;;;;;;;;;;;;;24.12;66.64;95402.78;10527083;28;1988;-70
2022/08/05 05:08:22;;;;;;;;;;;;;;;24.38;64.75;95402.03;10527500;28;1863;-71
2022/08/05 05:13:32;;;;;;;;;;;;;;;24.78;62.99;95402.16;10527571;28;1944;-72
2022/08/05 05:18:45;;;;;;;;;;;;;;;25.14;60.08;95404.56;10528007;28;1988;-71
2022/08/05 05:24:09;;;;;;;;;;;;;;;25.45;58.20;95414.31;10559608;27;2139;-70
2022/08/05 05:29:14;;;;;;;;;;;;;;;25.49;56.95;95409.63;10526397;28;2408;-70
2022/08/05 05:34:17;;;;;;;;;;;;;;;25.74;55.63;95402.44;10526202;28;2295;-72
2022/08/05 05:39:29;;;;;;;;;;;;;;;26.21;53.87;95411.06;10522554;28;1985;-71
2022/08/05 05:44:38;;;;;;;;;;;;;;;26.10;54.48;95416.50;10520809;28;2035;-72
2022/08/05 05:49:48;;;;;;;;;;;;;;;26.55;52.40;95420.75;10521422;28;2032;-70
2022/08/05 05:54:59;;;;;;;;;;;;;;;26.91;51.36;95416.22;10523145;28;1910;-69
2022/08/05 06:00:03;;;;;;;;;;;;;;;27.64;49.42;95412.50;10525341;28;1898;-71
2022/08/05 06:05:12;;;;;;;;;;;;;;;27.96;48.27;95416.13;10523251;28;1919;-71
2022/08/05 06:10:20;;;;;;;;;;;;;;;27.04;50.05;95413.09;10523660;28;1944;-70
2022/08/05 06:15:26;;;;;;;;;;;;;;;26.47;51.99;95426.63;10523788;28;1871;-70
2022/08/05 06:20:50;;;;;;;;;;;;;;;25.90;55.56;95423.44;10525128;28;1898;-71
2022/08/05 06:25:57;;;;;;;;;;;;;;;26.90;51.05;95414.63;10520410;28;1918;-73
2022/08/05 06:31:20;;;;;;;;;;;;;;;27.12;50.38;95409.25;10522591;28;1848;-71
2022/08/05 06:36:24;;;;;;;;;;;;;;;27.53;49.07;95417.22;10522780;28;1917;-70
2022/08/05 06:41:28;;;;;;;;;;;;;;;27.68;47.91;95413.31;10521347;28;1803;-70
2022/08/05 06:46:36;;;;;;;;;;;;;;;27.77;48.73;95427.53;10522824;28;1914;-70
2022/08/05 06:51:40;;;;;;;;;;;;;;;28.14;46.69;95429.16;10522464;28;1804;-70
2022/08/05 06:56:44;;;;;;;;;;;;;;;28.35;45.34;95434.69;10523272;28;1919;-72
2022/08/05 07:02:07;;;;;;;;;;;;;;;28.91;43.97;95435.75;10538660;28;1772;-71
2022/08/05 07:07:10;;;;;;;;;;;;;;;28.06;45.07;95430.31;10521750;28;1918;-71
2022/08/05 07:17:35;;;;;;;;;;;;;;;28.30;45.25;95446.09;10518884;28;1874;-71
2022/08/05 07:22:58;;;;;;;;;;;;;;;28.16;45.71;95465.44;10536153;28;1983;-71
2022/08/05 07:28:02;;;;;;;;;;;;;;;27.73;46.71;95465.41;10522143;28;1903;-71
2022/08/05 07:33:14;;;;;;;;;;;;;;;27.64;47.53;95489.81;10522178;28;1873;-71
2022/08/05 07:38:20;;;;;;;;;;;;;;;27.33;47.80;95486.56;10516423;28;1915;-71
2022/08/05 07:43:36;;;;;;;;;;;;;;;27.40;48.60;95497.63;10531745;28;1926;-71
2022/08/05 07:48:40;;;;;;;;;;;;;;;27.69;48.16;95504.06;10527295;28;1804;-72
2022/08/05 07:54:03;;;;;;;;;;;;;;;27.85;46.92;95511.97;10543869;28;1890;-72
2022/08/05 07:59:07;;;;;;;;;;;;;;;27.73;47.14;95523.38;10526504;28;1912;-71
2022/08/05 08:04:11;;;;;;;;;;;;;;;27.45;46.67;95533.13;10527589;28;1985;-70
2022/08/05 08:09:15;;;;;;;;;;;;;;;27.65;46.42;95535.56;10527267;28;1820;-72
2022/08/05 08:14:21;;;;;;;;;;;;;;;27.99;45.05;95545.19;10527870;28;1859;-74
2022/08/05 08:19:25;;;;;;;;;;;;;;;27.97;44.27;95542.00;10525097;28;1891;-72
2022/08/05 08:24:49;;;;;;;;;;;;;;;27.82;44.26;95562.50;10528164;28;1909;-71
2022/08/05 08:29:54;;;;;;;;;;;;;;;27.97;43.84;95574.38;10530054;28;1700;-71
2022/08/05 08:35:18;;;;;;;;;;;;;;;27.96;44.81;95573.56;10558474;27;1884;-72
2022/08/05 08:40:22;;;;;;;;;;;;;;;27.69;45.14;95580.59;10527415;28;1842;-72
2022/08/05 08:45:26;;;;;;;;;;;;;;;27.61;45.50;95592.75;10521892;28;1977;-70
2022/08/05 08:50:33;;;;;;;;;;;;;;;27.61;45.47;95590.81;10526581;28;1906;-71
2022/08/05 08:55:56;;;;;;;;;;;;;;;27.44;46.02;95608.84;10524914;28;1850;-71
2022/08/05 09:01:08;;;;;;;;;;;;;;;27.46;45.49;95609.25;10523331;28;2382;-72
2022/08/05 09:06:18;;;;;;;;;;;;;;;27.75;44.93;95609.44;10542447;28;1913;-69
2022/08/05 09:11:26;;;;;;;;;;;;;;;27.76;45.25;95610.22;10524437;28;1776;-70
2022/08/05 09:16:49;;;;;;;;;;;;;;;28.11;44.48;95623.34;10526588;28;1835;-70
2022/08/05 09:21:53;;;;;;;;;;;;;;;27.83;44.95;95626.81;10524615;28;1813;-70
2022/08/05 09:27:17;;;;;;;;;;;;;;;28.09;43.98;95617.41;10539353;28;1917;-72
2022/08/05 09:32:40;;;;;;;;;;;;;;;28.45;43.54;95624.66;10527805;28;1830;-72
2022/08/05 09:37:49;;;;;;;;;;;;;;;28.91;42.69;95632.16;10524135;28;2058;-71
2022/08/05 09:43:12;;;;;;;;;;;;;;;28.11;43.58;95635.19;10525335;28;2195;-71
2022/08/05 09:48:15;;;;;;;;;;;;;;;28.12;44.20;95630.44;10525552;28;2208;-71
2022/08/05 09:53:23;;;;;;;;;;;;;;;28.64;43.20;95631.00;10537489;28;1823;-71
2022/08/05 09:58:46;;;;;;;;;;;;;;;28.08;43.96;95630.44;10521786;28;1855;-71
2022/08/05 10:03:52;;;;;;;;;;;;;;;28.16;44.42;95625.72;10523991;28;1905;-71
2022/08/05 10:09:01;;;;;;;;;;;;;;;28.26;43.88;95631.28;10518892;28;1846;-71
2022/08/05 10:14:08;;;;;;;;;;;;;;;28.62;41.86;95625.03;10524733;28;1834;-73
2022/08/05 10:19:13;;;;;;;;;;;;;;;28.79;41.47;95646.41;10523365;28;1843;-71
2022/08/05 10:24:17;;;;;;;;;;;;;;;28.66;41.04;95637.69;10521799;28;1989;-72
2022/08/05 10:29:21;;;;;;;;;;;;;;;28.82;40.42;95640.09;10521596;28;1808;-71
2022/08/05 10:34:26;;;;;;;;;;;;;;;29.30;39.84;95654.31;10540805;28;1815;-71
2022/08/05 10:39:34;;;;;;;;;;;;;;;29.39;40.53;95645.56;10528177;28;1823;-71
2022/08/05 10:44:57;;;;;;;;;;;;;;;29.58;39.99;95634.13;10522417;28;1901;-71
2022/08/05 10:50:00;;;;;;;;;;;;;;;29.36;40.31;95646.38;10521552;28;1886;-72
2022/08/05 10:55:24;;;;;;;;;;;;;;;29.58;40.17;95647.97;10521506;28;1816;-71
2022/08/05 11:00:27;;;;;;;;;;;;;;;30.00;38.84;95640.69;10522665;28;1866;-70
2022/08/05 11:05:31;;;;;;;;;;;;;;;29.39;39.52;95658.63;10521506;28;1910;-71
2022/08/05 11:10:36;;;;;;;;;;;;;;;30.26;37.56;95633.06;10520982;28;2008;-72
2022/08/05 11:15:52;;;;;;;;;;;;;;;31.56;35.10;95632.47;10520742;28;1828;-71
2022/08/05 11:21:04;;;;;;;;;;;;;;;32.48;33.31;95624.19;10520925;28;1783;-70
2022/08/05 11:26:14;;;;;;;;;;;;;;;32.48;33.09;95624.19;10523071;28;1976;-72
2022/08/05 11:31:31;;;;;;;;;;;;;;;31.92;33.98;95607.84;10520816;28;1843;-71
2022/08/05 11:36:55;;;;;;;;;;;;;;;30.61;35.52;95621.75;10523427;28;1843;-71
2022/08/05 11:41:59;;;;;;;;;;;;;;;30.85;34.37;95616.41;10527066;28;1708;-71
2022/08/05 11:47:07;;;;;;;;;;;;;;;30.98;35.77;95614.72;10521657;28;1980;-70
2022/08/05 11:52:17;;;;;;;;;;;;;;;30.83;35.12;95613.28;10518590;28;1827;-70
2022/08/05 11:57:25;;;;;;;;;;;;;;;30.94;34.87;95608.44;10518946;28;1902;-70
2022/08/05 12:02:31;;;;;;;;;;;;;;;31.83;33.36;95601.22;10555067;28;2015;-70
2022/08/05 12:07:38;;;;;;;;;;;;;;;32.14;32.73;95600.00;10519667;28;2086;-72
2022/08/05 12:13:01;;;;;;;;;;;;;;;31.94;32.97;95590.75;10517909;28;1887;-71
2022/08/05 12:18:05;;;;;;;;;;;;;;;31.82;33.17;95596.88;10521640;28;1859;-70
2022/08/05 12:23:14;;;;;;;;;;;;;;;31.84;33.02;95586.13;10520098;28;1858;-69
2022/08/05 12:28:17;;;;;;;;;;;;;;;32.21;32.79;95572.09;10525616;28;1919;-72
2022/08/05 12:33:22;;;;;;;;;;;;;;;32.17;32.95;95584.47;10528545;28;1866;-72
2022/08/05 12:38:30;;;;;;;;;;;;;;;31.82;33.77;95580.19;10525976;28;1928;-71
2022/08/05 12:43:33;;;;;;;;;;;;;;;31.99;33.18;95568.03;10528204;28;1879;-72
2022/08/05 12:48:41;;;;;;;;;;;;;;;31.69;32.82;95568.81;10554595;27;1913;-72
2022/08/05 12:53:45;;;;;;;;;;;;;;;32.35;31.92;95560.00;10528187;28;1828;-72
2022/08/05 12:58:58;;;;;;;;;;;;;;;33.23;31.36;95551.41;10525949;28;1911;-72
2022/08/05 13:04:06;;;;;;;;;;;;;;;33.29;31.48;95548.91;10521051;28;1871;-73
2022/08/05 13:09:11;;;;;;;;;;;;;;;32.99;31.22;95541.50;10522157;28;1867;-70
2022/08/05 13:14:16;;;;;;;;;;;;;;;32.56;31.33;95542.19;10527558;28;1822;-69
2022/08/05 13:19:22;;;;;;;;;;;;;;;32.33;32.28;95556.88;10525109;28;1954;-70
2022/08/05 13:24:26;;;;;;;;;;;;;;;32.91;31.97;95537.28;10527586;28;1922;-71
2022/08/05 13:29:50;;;;;;;;;;;;;;;32.62;31.42;95545.28;10530870;28;1643;-72
2022/08/05 13:35:14;;;;;;;;;;;;;;;32.33;32.70;95533.81;10526077;28;1704;-71
2022/08/05 13:40:24;;;;;;;;;;;;;;;32.88;31.71;95524.19;10519535;28;1816;-71
2022/08/05 13:45:48;;;;;;;;;;;;;;;33.26;31.15;95539.38;10526140;28;1930;-70
2022/08/05 13:50:53;;;;;;;;;;;;;;;33.19;30.58;95542.31;10522844;28;1855;-72
2022/08/05 13:55:56;;;;;;;;;;;;;;;33.46;30.43;95524.72;10540572;28;1847;-71
2022/08/05 14:01:04;;;;;;;;;;;;;;;33.35;30.61;95525.69;10524698;28;1918;-71
2022/08/05 14:06:09;;;;;;;;;;;;;;;33.22;31.24;95519.19;10520171;28;1975;-72
2022/08/05 14:11:29;;;;;;;;;;;;;;;33.37;30.45;95516.13;10537876;28;1913;-75
2022/08/05 14:16:33;;;;;;;;;;;;;;;32.68;32.03;95507.41;10522782;28;1819;-72
2022/08/05 14:21:36;;;;;;;;;;;;;;;32.61;32.28;95494.41;10522121;28;1800;-71
2022/08/05 14:27:01;;;;;;;;;;;;;;;32.72;31.82;95495.00;10555985;27;1967;-71
2022/08/05 14:32:20;;;;;;;;;;;;;;;32.66;32.12;95488.38;10538539;28;1855;-71
2022/08/05 14:37:29;;;;;;;;;;;;;;;32.41;31.97;95479.66;10536259;28;1838;-71
2022/08/05 14:42:50;;;;;;;;;;;;;;;32.39;32.37;95465.38;10553831;27;1743;-71
2022/08/05 14:47:53;;;;;;;;;;;;;;;32.74;31.27;95439.72;10519993;28;1973;-71
2022/08/05 14:53:11;;;;;;;;;;;;;;;32.88;31.64;95440.69;10523946;28;1864;-71
2022/08/05 14:58:15;;;;;;;;;;;;;;;32.50;31.46;95433.38;10518812;28;1910;-72
2022/08/05 15:03:21;;;;;;;;;;;;;;;32.53;31.52;95420.63;10535665;28;1847;-72
2022/08/05 15:08:25;;;;;;;;;;;;;;;32.63;31.24;95436.31;10521427;28;1927;-72
2022/08/05 15:13:49;;;;;;;;;;;;;;;32.44;31.55;95443.41;10530636;28;1874;-71
2022/08/05 15:18:52;;;;;;;;;;;;;;;32.52;31.48;95450.44;10520759;28;1783;-71
2022/08/05 15:23:56;;;;;;;;;;;;;;;32.78;30.83;95461.91;10521382;28;1859;-71
2022/08/05 15:28:59;;;;;;;;;;;;;;;32.86;30.83;95451.44;10522263;28;2205;-71
2022/08/05 15:34:04;;;;;;;;;;;;;;;32.83;30.53;95461.44;10520934;28;1787;-71
2022/08/05 15:39:27;;;;;;;;;;;;;;;33.11;30.59;95470.47;10552437;28;1736;-71
2022/08/05 15:44:53;;;;;;;;;;;;;;;33.44;29.74;95466.63;10522559;28;1907;-71
2022/08/05 15:49:57;;;;;;;;;;;;;;;33.52;29.40;95467.25;10524441;28;1854;-72
2022/08/05 15:55:02;;;;;;;;;;;;;;;33.04;30.48;95460.25;10522729;28;1902;-75
2022/08/05 16:00:06;;;;;;;;;;;;;;;32.57;31.09;95463.06;10518622;28;1799;-72
2022/08/05 16:05:09;;;;;;;;;;;;;;;32.15;31.65;95457.00;10527643;28;2005;-71
2022/08/05 16:10:13;;;;;;;;;;;;;;;32.07;31.80;95461.09;10526267;28;1759;-72
2022/08/05 16:15:18;;;;;;;;;;;;;;;31.84;32.17;95470.16;10529378;28;1922;-72
2022/08/05 16:20:22;;;;;;;;;;;;;;;31.52;32.88;95464.25;10526445;28;1878;-71
2022/08/05 16:25:26;;;;;;;;;;;;;;;31.30;32.79;95463.72;10547422;28;1910;-71
2022/08/05 16:30:36;;;;;;;;;;;;;;;31.35;32.96;95460.47;10525621;28;1890;-72
2022/08/05 16:35:39;;;;;;;;;;;;;;;31.51;32.91;95469.00;10543472;28;1859;-71
2022/08/05 16:40:46;;;;;;;;;;;;;;;31.63;33.63;95465.69;10527016;28;1835;-71
2022/08/05 16:46:01;;;;;;;;;;;;;;;30.99;35.80;95472.00;10544291;28;1906;-71
2022/08/05 16:51:25;;;;;;;;;;;;;;;30.44;37.51;95474.88;10526694;28;1803;-71
2022/08/05 16:56:45;;;;;;;;;;;;;;;30.36;37.32;95474.16;10559990;27;1727;-72
2022/08/05 17:01:54;;;;;;;;;;;;;;;30.24;38.01;95481.00;10528271;28;1827;-72
2022/08/05 17:07:00;;;;;;;;;;;;;;;30.21;37.70;95476.25;10523688;28;1910;-70
2022/08/05 17:12:06;;;;;;;;;;;;;;;29.94;38.44;95481.56;10520547;28;1815;-70
2022/08/05 17:17:14;;;;;;;;;;;;;;;29.77;38.51;95486.00;10551948;27;1844;-70
2022/08/05 17:22:21;;;;;;;;;;;;;;;29.80;38.19;95473.34;10521377;28;1915;-71
2022/08/05 17:27:27;;;;;;;;;;;;;;;29.78;38.44;95478.50;10525716;28;1898;-71
2022/08/05 17:32:36;;;;;;;;;;;;;;;29.73;38.50;95485.25;10523905;28;1815;-70
2022/08/05 17:37:44;;;;;;;;;;;;;;;29.68;38.43;95476.59;10525461;28;1863;-72
2022/08/05 17:42:50;;;;;;;;;;;;;;;29.65;38.40;95474.59;10525053;28;1757;-71
2022/08/05 17:47:55;;;;;;;;;;;;;;;29.52;39.04;95483.41;10522164;28;1910;-70
2022/08/05 17:52:59;;;;;;;;;;;;;;;29.16;39.25;95487.47;10526692;28;1867;-71
2022/08/05 17:58:03;;;;;;;;;;;;;;;28.95;39.60;95496.63;10526763;28;1874;-71
2022/08/05 18:03:09;;;;;;;;;;;;;;;28.80;40.59;95493.06;10522868;28;1863;-70
2022/08/05 18:08:13;;;;;;;;;;;;;;;28.66;43.05;95498.63;10522978;28;1913;-70
2022/08/05 18:13:17;;;;;;;;;;;;;;;28.59;43.83;95504.16;10523481;28;1843;-72
2022/08/05 18:18:22;;;;;;;;;;;;;;;28.46;44.61;95501.81;10526713;28;1838;-70
2022/08/05 18:23:29;;;;;;;;;;;;;;;28.25;45.72;95504.56;10523938;28;1933;-71
2022/08/05 18:28:47;;;;;;;;;;;;;;;28.14;46.51;95503.75;10553213;27;1945;-70
2022/08/05 18:33:51;;;;;;;;;;;;;;;27.91;47.43;95510.41;10524310;28;1882;-73
2022/08/05 18:38:58;;;;;;;;;;;;;;;27.85;47.82;95514.75;10523136;28;1761;-72
2022/08/05 18:44:03;;;;;;;;;;;;;;;27.77;48.52;95515.91;10522350;28;2337;-71
2022/08/05 18:54:33;;;;;;;;;;;;;;;27.66;49.31;95517.81;10522895;28;1823;-72
2022/08/05 18:59:38;;;;;;;;;;;;;;;27.58;49.54;95519.78;10523818;28;1854;-71
2022/08/05 19:05:01;;;;;;;;;;;;;;;27.46;50.30;95531.97;10553595;27;1976;-72
2022/08/05 19:10:25;;;;;;;;;;;;;;;27.29;53.07;95573.28;10522804;28;1922;-71
2022/08/05 19:15:30;;;;;;;;;;;;;;;26.72;63.14;95597.69;10523187;28;1834;-71
2022/08/05 19:20:54;;;;;;;;;;;;;;;24.36;73.90;95630.38;10522294;28;1852;-71
2022/08/05 19:25:58;;;;;;;;;;;;;;;21.22;100.00;95674.75;10523008;28;1914;-72
2022/08/05 19:31:05;;;;;;;;;;;;;;;19.52;100.00;95716.03;10525947;28;2017;-72
2022/08/05 19:36:09;;;;;;;;;;;;;;;19.25;100.00;95745.38;10523820;28;2291;-70
2022/08/05 19:41:17;;;;;;;;;;;;;;;18.19;100.00;95790.72;10530693;28;1842;-68
2022/08/05 19:46:40;;;;;;;;;;;;;;;18.02;100.00;95795.06;10543531;28;1977;-68
2022/08/05 19:51:46;;;;;;;;;;;;;;;18.43;100.00;95787.47;10528731;28;1851;-69
2022/08/05 19:57:08;;;;;;;;;;;;;;;18.60;100.00;95747.41;10530082;28;1772;-71
2022/08/05 20:02:12;;;;;;;;;;;;;;;18.89;100.00;95745.88;10530238;28;1926;-68
2022/08/05 20:07:16;;;;;;;;;;;;;;;19.12;100.00;95733.59;10528072;28;1914;-68
2022/08/05 20:12:40;;;;;;;;;;;;;;;19.28;100.00;95728.41;10528728;28;1775;-68
2022/08/05 20:17:51;;;;;;;;;;;;;;;19.34;100.00;95720.78;10525824;28;1838;-69
2022/08/05 20:22:54;;;;;;;;;;;;;;;19.26;100.00;95718.94;10528515;28;1858;-69
2022/08/05 20:28:00;;;;;;;;;;;;;;;19.35;100.00;95706.88;10524332;28;1916;-69
2022/08/05 20:33:04;;;;;;;;;;;;;;;19.53;100.00;95702.09;10524666;28;1890;-69
2022/08/05 20:38:08;;;;;;;;;;;;;;;19.57;100.00;95708.47;10525784;28;1995;-69
2022/08/05 20:43:16;;;;;;;;;;;;;;;19.49;100.00;95758.41;10527413;28;1847;-72
2022/08/05 20:48:40;;;;;;;;;;;;;;;19.51;100.00;95780.66;10524693;28;1924;-69
2022/08/05 20:53:45;;;;;;;;;;;;;;;19.49;100.00;95812.13;10527041;28;1949;-70
2022/08/05 20:58:59;;;;;;;;;;;;;;;19.58;100.00;95834.69;10558589;27;1855;-70
2022/08/05 21:04:21;;;;;;;;;;;;;;;19.59;100.00;95844.47;10557482;27;2317;-70
2022/08/05 21:09:29;;;;;;;;;;;;;;;19.47;100.00;95860.69;10557224;27;1962;-72
2022/08/05 21:14:36;;;;;;;;;;;;;;;19.44;100.00;95878.53;10541251;28;1847;-71
2022/08/05 21:19:39;;;;;;;;;;;;;;;19.38;100.00;95874.38;10539243;28;2104;-69
2022/08/05 21:24:49;;;;;;;;;;;;;;;19.40;100.00;95885.75;10525739;28;1803;-71
2022/08/05 21:29:54;;;;;;;;;;;;;;;19.48;100.00;95889.59;10525691;28;1744;-71
2022/08/05 21:34:58;;;;;;;;;;;;;;;19.52;100.00;95902.22;10527982;28;1871;-72
2022/08/05 21:40:20;;;;;;;;;;;;;;;19.47;100.00;95921.50;10539716;28;1930;-71
2022/08/05 21:45:23;;;;;;;;;;;;;;;18.98;100.00;95921.00;10527660;28;1871;-71
2022/08/05 21:50:48;;;;;;;;;;;;;;;18.66;100.00;95960.41;10523389;28;1783;-73
2022/08/05 21:56:02;;;;;;;;;;;;;;;18.55;100.00;95959.91;10524810;28;1840;-71
2022/08/05 22:01:18;;;;;;;;;;;;;;;18.27;100.00;95970.31;10524612;28;1894;-71
2022/08/05 22:06:27;;;;;;;;;;;;;;;18.14;100.00;95971.25;10524031;28;1974;-70
2022/08/05 22:11:41;;;;;;;;;;;;;;;18.09;100.00;95960.50;10522793;28;1870;-71
2022/08/05 22:16:45;;;;;;;;;;;;;;;18.16;100.00;95944.50;10520607;28;1922;-72
2022/08/05 22:21:54;;;;;;;;;;;;;;;18.30;100.00;95941.66;10523006;28;1886;-70
2022/08/05 22:32:19;;;;;;;;;;;;;;;18.40;100.00;95960.41;10536708;28;1810;-71
2022/08/05 22:37:25;;;;;;;;;;;;;;;18.50;100.00;95984.56;10521156;28;1971;-71
2022/08/05 22:42:49;;;;;;;;;;;;;;;18.56;100.00;95982.50;10520555;28;1873;-72
2022/08/05 22:47:59;;;;;;;;;;;;;;;18.62;100.00;95976.56;10518979;28;1885;-72
2022/08/05 22:53:04;;;;;;;;;;;;;;;18.66;100.00;95990.34;10523773;28;1849;-72
2022/08/05 22:58:12;;;;;;;;;;;;;;;18.71;100.00;95998.41;10521156;28;1985;-71
2022/08/05 23:03:17;;;;;;;;;;;;;;;18.73;100.00;96009.75;10519565;28;1828;-72
2022/08/05 23:08:40;;;;;;;;;;;;;;;18.65;100.00;96005.09;10519283;28;2153;-71
2022/08/05 23:13:43;;;;;;;;;;;;;;;18.59;100.00;96003.66;10520582;28;2287;-71
2022/08/05 23:18:54;;;;;;;;;;;;;;;18.52;100.00;96015.00;10520425;28;1971;-71
2022/08/05 23:23:57;;;;;;;;;;;;;;;18.49;100.00;96018.34;10521099;28;1846;-71
2022/08/05 23:29:01;;;;;;;;;;;;;;;18.44;100.00;96010.34;10533635;28;1914;-71
2022/08/05 23:34:06;;;;;;;;;;;;;;;18.32;100.00;96018.31;10522477;28;1842;-71
2022/08/05 23:39:10;;;;;;;;;;;;;;;18.02;100.00;96012.66;10554995;28;1918;-72
2022/08/05 23:44:19;;;;;;;;;;;;;;;17.76;100.00;96014.47;10537272;28;1803;-71
2022/08/05 23:49:29;;;;;;;;;;;;;;;17.73;100.00;96034.91;10521237;28;2006;-72
2022/08/05 23:54:38;;;;;;;;;;;;;;;17.66;100.00;96039.97;10520759;28;1830;-71
2022/08/05 23:59:42;;;;;;;;;;;;;;;17.63;100.00;96037.88;10522583;28;1971;-71
